sim
Sign-in with your pilot id or email,
or register
Callsign
Passwort

Schedule Details

Flight Number: DLH118
Departure: Frankfurt Airport (EDDF) at 18:15
Arrival: Munich Airport (EDDM) at 19:10
Route: Lufthansa Passenger Schedule. Enter filed route here before submitting Pirep.

Weather Information
Getting current METAR information for EDDF 260020Z 21009KT 9999 -SHRA FEW019 BKN030 10/06 Q0999 NOSIG
Getting current METAR information for EDDM 260020Z 27009KT 9999 -RA FEW025 BKN037 07/06 Q1000 NOSIG

Schedule Frequency

Route Map